Terminal Aerodrome Forecast
Issued by NWS

Home | Current Version | Previous Version | Text Only | Print | Product List | Glossary On
Versions: 1 2 3 4 5 6 7 8 9 10 11 12 13 14 15 16 17 18 19 20
000
FTUS43 KAPX 282320
TAFAPN
TAF
KAPN 282320Z 2900/2924 VRB03KT P6SM SCT250
     FM291300 19012G21KT P6SM BKN100 OVC200
     FM291600 19016G26KT P6SM SCT040 OVC080
     FM291900 20018G28KT 4SM -SNRA OVC025=

USA.gov is the U.S. government's official web portal to all federal, state and local government web resources and services.